sensor_id;sensor_type;location;lat;lon;timestamp;P1;durP1;ratioP1;P2;durP2;ratioP2
7253;SDS011;4060;49.186;9.226;2022-07-03T00:01:04;1.27;;;0.90;;
7253;SDS011;4060;49.186;9.226;2022-07-03T00:03:36;1.30;;;1.20;;
7253;SDS011;4060;49.186;9.226;2022-07-03T00:06:06;1.65;;;1.17;;
7253;SDS011;4060;49.186;9.226;2022-07-03T00:08:36;1.10;;;1.00;;
7253;SDS011;4060;49.186;9.226;2022-07-03T00:11:06;1.48;;;1.20;;
7253;SDS011;4060;49.186;9.226;2022-07-03T00:13:37;1.05;;;0.98;;
7253;SDS011;4060;49.186;9.226;2022-07-03T00:16:08;1.20;;;1.10;;
7253;SDS011;4060;49.186;9.226;2022-07-03T00:18:40;1.48;;;1.10;;
7253;SDS011;4060;49.186;9.226;2022-07-03T00:21:11;1.42;;;1.33;;
7253;SDS011;4060;49.186;9.226;2022-07-03T00:23:46;1.17;;;1.10;;
7253;SDS011;4060;49.186;9.226;2022-07-03T00:26:22;2.08;;;1.10;;
7253;SDS011;4060;49.186;9.226;2022-07-03T00:28:54;1.27;;;1.00;;
7253;SDS011;4060;49.186;9.226;2022-07-03T00:31:28;1.27;;;1.17;;
7253;SDS011;4060;49.186;9.226;2022-07-03T00:34:01;2.13;;;1.20;;
7253;SDS011;4060;49.186;9.226;2022-07-03T00:36:33;1.20;;;1.10;;
7253;SDS011;4060;49.186;9.226;2022-07-03T00:39:04;1.42;;;1.00;;
7253;SDS011;4060;49.186;9.226;2022-07-03T00:41:34;0.82;;;0.82;;
7253;SDS011;4060;49.186;9.226;2022-07-03T00:44:04;1.42;;;1.23;;
7253;SDS011;4060;49.186;9.226;2022-07-03T00:46:34;1.85;;;1.13;;
7253;SDS011;4060;49.186;9.226;2022-07-03T00:49:10;1.27;;;1.15;;
7253;SDS011;4060;49.186;9.226;2022-07-03T00:51:39;1.00;;;1.00;;
7253;SDS011;4060;49.186;9.226;2022-07-03T00:54:10;1.67;;;1.05;;
7253;SDS011;4060;49.186;9.226;2022-07-03T00:56:46;2.10;;;0.90;;
7253;SDS011;4060;49.186;9.226;2022-07-03T00:59:21;1.15;;;1.02;;
7253;SDS011;4060;49.186;9.226;2022-07-03T01:01:52;1.13;;;1.02;;
7253;SDS011;4060;49.186;9.226;2022-07-03T01:04:40;1.67;;;1.20;;
7253;SDS011;4060;49.186;9.226;2022-07-03T01:07:23;1.35;;;1.10;;
7253;SDS011;4060;49.186;9.226;2022-07-03T01:10:04;1.25;;;1.00;;
7253;SDS011;4060;49.186;9.226;2022-07-03T01:12:43;1.10;;;1.00;;
7253;SDS011;4060;49.186;9.226;2022-07-03T01:15:36;1.63;;;0.95;;
7253;SDS011;4060;49.186;9.226;2022-07-03T01:18:17;0.82;;;0.82;;
7253;SDS011;4060;49.186;9.226;2022-07-03T01:21:00;1.55;;;1.00;;
7253;SDS011;4060;49.186;9.226;2022-07-03T01:23:44;1.73;;;1.30;;
7253;SDS011;4060;49.186;9.226;2022-07-03T01:26:38;1.08;;;1.08;;
7253;SDS011;4060;49.186;9.226;2022-07-03T01:29:12;1.02;;;0.93;;
7253;SDS011;4060;49.186;9.226;2022-07-03T01:31:47;1.30;;;1.10;;
7253;SDS011;4060;49.186;9.226;2022-07-03T01:34:18;1.40;;;1.30;;
7253;SDS011;4060;49.186;9.226;2022-07-03T01:36:50;0.93;;;0.93;;
7253;SDS011;4060;49.186;9.226;2022-07-03T01:39:27;1.40;;;1.30;;
7253;SDS011;4060;49.186;9.226;2022-07-03T01:42:00;0.90;;;0.90;;
7253;SDS011;4060;49.186;9.226;2022-07-03T01:44:33;1.17;;;1.08;;
7253;SDS011;4060;49.186;9.226;2022-07-03T01:47:06;1.10;;;1.00;;
7253;SDS011;4060;49.186;9.226;2022-07-03T01:49:36;1.30;;;1.10;;
7253;SDS011;4060;49.186;9.226;2022-07-03T01:52:08;1.27;;;1.10;;
7253;SDS011;4060;49.186;9.226;2022-07-03T01:54:39;1.10;;;1.00;;
7253;SDS011;4060;49.186;9.226;2022-07-03T01:57:12;1.00;;;1.00;;
7253;SDS011;4060;49.186;9.226;2022-07-03T01:59:42;1.20;;;1.10;;
7253;SDS011;4060;49.186;9.226;2022-07-03T02:02:14;1.20;;;0.95;;
7253;SDS011;4060;49.186;9.226;2022-07-03T02:04:54;1.95;;;1.00;;
7253;SDS011;4060;49.186;9.226;2022-07-03T02:07:33;1.15;;;1.00;;
7253;SDS011;4060;49.186;9.226;2022-07-03T02:10:09;1.20;;;1.10;;
7253;SDS011;4060;49.186;9.226;2022-07-03T02:12:48;2.35;;;1.20;;
7253;SDS011;4060;49.186;9.226;2022-07-03T02:15:27;1.50;;;1.30;;
7253;SDS011;4060;49.186;9.226;2022-07-03T02:18:00;1.35;;;1.15;;
7253;SDS011;4060;49.186;9.226;2022-07-03T02:20:40;1.88;;;1.00;;
7253;SDS011;4060;49.186;9.226;2022-07-03T02:23:21;1.27;;;1.17;;
7253;SDS011;4060;49.186;9.226;2022-07-03T02:25:55;0.90;;;0.82;;
7253;SDS011;4060;49.186;9.226;2022-07-03T02:28:33;1.08;;;1.00;;
7253;SDS011;4060;49.186;9.226;2022-07-03T02:31:15;1.25;;;1.10;;
7253;SDS011;4060;49.186;9.226;2022-07-03T02:33:47;2.78;;;1.17;;
7253;SDS011;4060;49.186;9.226;2022-07-03T02:36:18;2.15;;;1.30;;
7253;SDS011;4060;49.186;9.226;2022-07-03T02:38:51;2.20;;;1.38;;
7253;SDS011;4060;49.186;9.226;2022-07-03T02:41:23;1.77;;;1.17;;
7253;SDS011;4060;49.186;9.226;2022-07-03T02:44:01;1.27;;;1.17;;
7253;SDS011;4060;49.186;9.226;2022-07-03T02:46:37;0.98;;;0.90;;
7253;SDS011;4060;49.186;9.226;2022-07-03T02:49:22;1.83;;;1.20;;
7253;SDS011;4060;49.186;9.226;2022-07-03T02:52:14;1.88;;;1.00;;
7253;SDS011;4060;49.186;9.226;2022-07-03T02:54:57;2.53;;;1.40;;
7253;SDS011;4060;49.186;9.226;2022-07-03T02:57:35;1.20;;;1.20;;
7253;SDS011;4060;49.186;9.226;2022-07-03T03:00:09;1.38;;;1.20;;
7253;SDS011;4060;49.186;9.226;2022-07-03T03:02:52;1.00;;;1.00;;
7253;SDS011;4060;49.186;9.226;2022-07-03T03:05:26;1.55;;;1.10;;
7253;SDS011;4060;49.186;9.226;2022-07-03T03:08:04;1.63;;;1.33;;
7253;SDS011;4060;49.186;9.226;2022-07-03T03:10:39;1.52;;;1.35;;
7253;SDS011;4060;49.186;9.226;2022-07-03T03:13:09;1.60;;;1.23;;
7253;SDS011;4060;49.186;9.226;2022-07-03T03:15:43;1.98;;;1.20;;
7253;SDS011;4060;49.186;9.226;2022-07-03T03:18:23;1.02;;;1.02;;
7253;SDS011;4060;49.186;9.226;2022-07-03T03:20:58;1.40;;;1.30;;
7253;SDS011;4060;49.186;9.226;2022-07-03T03:23:42;1.40;;;1.30;;
7253;SDS011;4060;49.186;9.226;2022-07-03T03:26:14;1.33;;;1.23;;
7253;SDS011;4060;49.186;9.226;2022-07-03T03:28:47;1.35;;;1.30;;
7253;SDS011;4060;49.186;9.226;2022-07-03T03:31:19;2.67;;;1.20;;
7253;SDS011;4060;49.186;9.226;2022-07-03T03:33:49;1.15;;;1.15;;
7253;SDS011;4060;49.186;9.226;2022-07-03T03:36:20;1.95;;;1.40;;
7253;SDS011;4060;49.186;9.226;2022-07-03T03:38:50;1.60;;;1.30;;
7253;SDS011;4060;49.186;9.226;2022-07-03T03:41:20;1.48;;;1.38;;
7253;SDS011;4060;49.186;9.226;2022-07-03T03:43:50;1.67;;;1.30;;
7253;SDS011;4060;49.186;9.226;2022-07-03T03:46:21;1.88;;;1.45;;
7253;SDS011;4060;49.186;9.226;2022-07-03T03:48:50;1.38;;;1.23;;
7253;SDS011;4060;49.186;9.226;2022-07-03T03:51:26;1.30;;;1.20;;
7253;SDS011;4060;49.186;9.226;2022-07-03T03:53:56;1.30;;;1.20;;
7253;SDS011;4060;49.186;9.226;2022-07-03T03:56:26;1.52;;;1.38;;
7253;SDS011;4060;49.186;9.226;2022-07-03T03:58:55;1.60;;;1.50;;
7253;SDS011;4060;49.186;9.226;2022-07-03T04:01:27;2.92;;;1.55;;
7253;SDS011;4060;49.186;9.226;2022-07-03T04:03:56;1.90;;;1.35;;
7253;SDS011;4060;49.186;9.226;2022-07-03T04:06:27;2.70;;;1.25;;
7253;SDS011;4060;49.186;9.226;2022-07-03T04:08:57;1.60;;;1.50;;
7253;SDS011;4060;49.186;9.226;2022-07-03T04:11:27;1.55;;;1.42;;
7253;SDS011;4060;49.186;9.226;2022-07-03T04:13:56;1.27;;;1.17;;
7253;SDS011;4060;49.186;9.226;2022-07-03T04:16:28;1.30;;;1.20;;
7253;SDS011;4060;49.186;9.226;2022-07-03T04:18:58;1.67;;;1.58;;
7253;SDS011;4060;49.186;9.226;2022-07-03T04:21:28;1.50;;;1.40;;
7253;SDS011;4060;49.186;9.226;2022-07-03T04:23:57;1.33;;;1.23;;
7253;SDS011;4060;49.186;9.226;2022-07-03T04:26:26;1.58;;;1.48;;
7253;SDS011;4060;49.186;9.226;2022-07-03T04:28:56;1.48;;;1.38;;
7253;SDS011;4060;49.186;9.226;2022-07-03T04:31:28;1.50;;;1.40;;
7253;SDS011;4060;49.186;9.226;2022-07-03T04:33:57;1.20;;;1.20;;
7253;SDS011;4060;49.186;9.226;2022-07-03T04:36:27;1.67;;;1.58;;
7253;SDS011;4060;49.186;9.226;2022-07-03T04:38:57;4.85;;;1.50;;
7253;SDS011;4060;49.186;9.226;2022-07-03T04:41:27;1.60;;;1.50;;
7253;SDS011;4060;49.186;9.226;2022-07-03T04:43:56;1.65;;;1.48;;
7253;SDS011;4060;49.186;9.226;2022-07-03T04:46:28;1.55;;;1.45;;
7253;SDS011;4060;49.186;9.226;2022-07-03T04:48:56;2.63;;;1.40;;
7253;SDS011;4060;49.186;9.226;2022-07-03T04:51:26;1.33;;;1.20;;
7253;SDS011;4060;49.186;9.226;2022-07-03T04:53:55;2.00;;;1.50;;
7253;SDS011;4060;49.186;9.226;2022-07-03T04:56:25;1.42;;;1.33;;
7253;SDS011;4060;49.186;9.226;2022-07-03T04:58:55;1.30;;;1.20;;
7253;SDS011;4060;49.186;9.226;2022-07-03T05:01:24;1.33;;;1.23;;
7253;SDS011;4060;49.186;9.226;2022-07-03T05:03:56;1.48;;;1.38;;
7253;SDS011;4060;49.186;9.226;2022-07-03T05:06:26;1.42;;;1.30;;
7253;SDS011;4060;49.186;9.226;2022-07-03T05:08:55;1.73;;;1.17;;
7253;SDS011;4060;49.186;9.226;2022-07-03T05:11:25;2.25;;;1.25;;
7253;SDS011;4060;49.186;9.226;2022-07-03T05:13:54;1.30;;;1.20;;
7253;SDS011;4060;49.186;9.226;2022-07-03T05:16:24;1.10;;;1.10;;
7253;SDS011;4060;49.186;9.226;2022-07-03T05:18:55;1.30;;;1.17;;
7253;SDS011;4060;49.186;9.226;2022-07-03T05:21:25;1.30;;;1.20;;
7253;SDS011;4060;49.186;9.226;2022-07-03T05:23:54;1.23;;;1.13;;
7253;SDS011;4060;49.186;9.226;2022-07-03T05:26:23;2.65;;;1.23;;
7253;SDS011;4060;49.186;9.226;2022-07-03T05:28:53;1.40;;;1.30;;
7253;SDS011;4060;49.186;9.226;2022-07-03T05:31:23;1.27;;;1.17;;
7253;SDS011;4060;49.186;9.226;2022-07-03T05:33:55;1.25;;;1.15;;
7253;SDS011;4060;49.186;9.226;2022-07-03T05:36:24;1.25;;;1.13;;
7253;SDS011;4060;49.186;9.226;2022-07-03T05:38:53;1.73;;;1.20;;
7253;SDS011;4060;49.186;9.226;2022-07-03T05:41:39;1.95;;;1.23;;
7253;SDS011;4060;49.186;9.226;2022-07-03T05:44:09;3.08;;;1.27;;
7253;SDS011;4060;49.186;9.226;2022-07-03T05:46:39;1.52;;;1.05;;
7253;SDS011;4060;49.186;9.226;2022-07-03T05:49:11;1.33;;;1.20;;
7253;SDS011;4060;49.186;9.226;2022-07-03T05:51:41;2.20;;;1.17;;
7253;SDS011;4060;49.186;9.226;2022-07-03T05:54:12;1.00;;;1.00;;
7253;SDS011;4060;49.186;9.226;2022-07-03T05:56:42;2.17;;;1.17;;
7253;SDS011;4060;49.186;9.226;2022-07-03T05:59:12;1.38;;;1.27;;
7253;SDS011;4060;49.186;9.226;2022-07-03T06:01:41;1.20;;;1.10;;
7253;SDS011;4060;49.186;9.226;2022-07-03T06:04:13;3.55;;;1.30;;
7253;SDS011;4060;49.186;9.226;2022-07-03T06:06:42;2.00;;;1.40;;
7253;SDS011;4060;49.186;9.226;2022-07-03T06:09:12;1.50;;;1.10;;
7253;SDS011;4060;49.186;9.226;2022-07-03T06:11:42;2.15;;;1.45;;
7253;SDS011;4060;49.186;9.226;2022-07-03T06:14:13;1.30;;;1.20;;
7253;SDS011;4060;49.186;9.226;2022-07-03T06:16:44;1.23;;;1.13;;
7253;SDS011;4060;49.186;9.226;2022-07-03T06:19:16;1.85;;;1.35;;
7253;SDS011;4060;49.186;9.226;2022-07-03T06:21:45;2.25;;;1.27;;
7253;SDS011;4060;49.186;9.226;2022-07-03T06:24:16;1.90;;;1.05;;
7253;SDS011;4060;49.186;9.226;2022-07-03T06:26:45;1.15;;;0.98;;
7253;SDS011;4060;49.186;9.226;2022-07-03T06:29:15;1.30;;;0.98;;
7253;SDS011;4060;49.186;9.226;2022-07-03T06:31:44;1.75;;;1.05;;
7253;SDS011;4060;49.186;9.226;2022-07-03T06:34:16;1.10;;;1.10;;
7253;SDS011;4060;49.186;9.226;2022-07-03T06:36:45;1.20;;;1.10;;
7253;SDS011;4060;49.186;9.226;2022-07-03T06:39:15;1.55;;;1.40;;
7253;SDS011;4060;49.186;9.226;2022-07-03T06:41:44;1.67;;;1.10;;
7253;SDS011;4060;49.186;9.226;2022-07-03T06:44:13;1.15;;;0.90;;
7253;SDS011;4060;49.186;9.226;2022-07-03T06:46:42;1.25;;;1.02;;
7253;SDS011;4060;49.186;9.226;2022-07-03T06:49:12;1.40;;;1.30;;
7253;SDS011;4060;49.186;9.226;2022-07-03T06:51:44;1.02;;;1.02;;
7253;SDS011;4060;49.186;9.226;2022-07-03T06:54:14;1.35;;;0.93;;
7253;SDS011;4060;49.186;9.226;2022-07-03T06:56:43;1.13;;;1.05;;
7253;SDS011;4060;49.186;9.226;2022-07-03T06:59:13;1.42;;;1.17;;
7253;SDS011;4060;49.186;9.226;2022-07-03T07:01:42;0.98;;;0.98;;
7253;SDS011;4060;49.186;9.226;2022-07-03T07:04:13;1.50;;;1.33;;
7253;SDS011;4060;49.186;9.226;2022-07-03T07:06:46;1.05;;;1.00;;
7253;SDS011;4060;49.186;9.226;2022-07-03T07:09:16;1.90;;;0.98;;
7253;SDS011;4060;49.186;9.226;2022-07-03T07:11:47;1.55;;;1.00;;
7253;SDS011;4060;49.186;9.226;2022-07-03T07:14:16;1.70;;;1.20;;
7253;SDS011;4060;49.186;9.226;2022-07-03T07:16:46;0.93;;;0.93;;
7253;SDS011;4060;49.186;9.226;2022-07-03T07:19:15;1.40;;;1.30;;
7253;SDS011;4060;49.186;9.226;2022-07-03T07:21:47;1.10;;;1.00;;
7253;SDS011;4060;49.186;9.226;2022-07-03T07:24:17;1.10;;;0.90;;
7253;SDS011;4060;49.186;9.226;2022-07-03T07:26:46;2.28;;;1.15;;
7253;SDS011;4060;49.186;9.226;2022-07-03T07:29:16;1.42;;;1.00;;
7253;SDS011;4060;49.186;9.226;2022-07-03T07:31:45;3.10;;;1.27;;
7253;SDS011;4060;49.186;9.226;2022-07-03T07:34:15;0.98;;;0.98;;
7253;SDS011;4060;49.186;9.226;2022-07-03T07:36:47;1.77;;;1.15;;
7253;SDS011;4060;49.186;9.226;2022-07-03T07:39:17;0.98;;;0.90;;
7253;SDS011;4060;49.186;9.226;2022-07-03T07:41:46;1.02;;;1.02;;
7253;SDS011;4060;49.186;9.226;2022-07-03T07:44:16;1.00;;;1.00;;
7253;SDS011;4060;49.186;9.226;2022-07-03T07:46:46;1.00;;;0.90;;
7253;SDS011;4060;49.186;9.226;2022-07-03T07:49:15;1.42;;;1.10;;
7253;SDS011;4060;49.186;9.226;2022-07-03T07:51:44;1.05;;;0.95;;
7253;SDS011;4060;49.186;9.226;2022-07-03T07:54:16;1.02;;;1.00;;
7253;SDS011;4060;49.186;9.226;2022-07-03T07:56:46;1.23;;;1.13;;
7253;SDS011;4060;49.186;9.226;2022-07-03T07:59:15;1.45;;;1.20;;
7253;SDS011;4060;49.186;9.226;2022-07-03T08:01:45;1.63;;;1.02;;
7253;SDS011;4060;49.186;9.226;2022-07-03T08:04:31;3.35;;;1.02;;
7253;SDS011;4060;49.186;9.226;2022-07-03T08:07:19;3.47;;;1.30;;
7253;SDS011;4060;49.186;9.226;2022-07-03T08:09:48;1.33;;;1.13;;
7253;SDS011;4060;49.186;9.226;2022-07-03T08:12:19;0.98;;;0.90;;
7253;SDS011;4060;49.186;9.226;2022-07-03T08:14:49;1.70;;;1.13;;
7253;SDS011;4060;49.186;9.226;2022-07-03T08:17:19;1.58;;;1.20;;
7253;SDS011;4060;49.186;9.226;2022-07-03T08:19:48;0.82;;;0.82;;
7253;SDS011;4060;49.186;9.226;2022-07-03T08:22:20;1.45;;;1.13;;
7253;SDS011;4060;49.186;9.226;2022-07-03T08:24:49;1.00;;;1.00;;
7253;SDS011;4060;49.186;9.226;2022-07-03T08:27:18;1.67;;;1.10;;
7253;SDS011;4060;49.186;9.226;2022-07-03T08:29:48;0.80;;;0.80;;
7253;SDS011;4060;49.186;9.226;2022-07-03T08:32:18;1.67;;;0.90;;
7253;SDS011;4060;49.186;9.226;2022-07-03T08:34:48;1.40;;;1.00;;
7253;SDS011;4060;49.186;9.226;2022-07-03T08:37:19;0.98;;;0.90;;
7253;SDS011;4060;49.186;9.226;2022-07-03T08:39:48;0.80;;;0.80;;
7253;SDS011;4060;49.186;9.226;2022-07-03T08:42:18;1.00;;;0.90;;
7253;SDS011;4060;49.186;9.226;2022-07-03T08:44:50;1.63;;;1.00;;
7253;SDS011;4060;49.186;9.226;2022-07-03T08:47:19;1.15;;;1.05;;
7253;SDS011;4060;49.186;9.226;2022-07-03T08:49:50;1.42;;;0.90;;
7253;SDS011;4060;49.186;9.226;2022-07-03T08:52:23;1.73;;;0.90;;
7253;SDS011;4060;49.186;9.226;2022-07-03T08:54:52;0.90;;;0.90;;
7253;SDS011;4060;49.186;9.226;2022-07-03T08:57:22;0.95;;;0.90;;
7253;SDS011;4060;49.186;9.226;2022-07-03T08:59:53;0.88;;;0.82;;
7253;SDS011;4060;49.186;9.226;2022-07-03T09:02:24;1.10;;;1.00;;
7253;SDS011;4060;49.186;9.226;2022-07-03T09:04:54;0.70;;;0.70;;
7253;SDS011;4060;49.186;9.226;2022-07-03T09:07:29;0.60;;;0.60;;
7253;SDS011;4060;49.186;9.226;2022-07-03T09:10:03;1.27;;;0.85;;
7253;SDS011;4060;49.186;9.226;2022-07-03T09:12:33;1.13;;;0.80;;
7253;SDS011;4060;49.186;9.226;2022-07-03T09:15:03;1.25;;;1.00;;
7253;SDS011;4060;49.186;9.226;2022-07-03T09:17:34;4.50;;;0.80;;
7253;SDS011;4060;49.186;9.226;2022-07-03T09:20:05;0.88;;;0.80;;
7253;SDS011;4060;49.186;9.226;2022-07-03T09:22:37;1.33;;;0.88;;
7253;SDS011;4060;49.186;9.226;2022-07-03T09:25:07;0.60;;;0.60;;
7253;SDS011;4060;49.186;9.226;2022-07-03T09:27:38;1.35;;;0.80;;
7253;SDS011;4060;49.186;9.226;2022-07-03T09:30:17;0.75;;;0.73;;
7253;SDS011;4060;49.186;9.226;2022-07-03T09:32:47;0.60;;;0.60;;
7253;SDS011;4060;49.186;9.226;2022-07-03T09:35:17;0.70;;;0.70;;
7253;SDS011;4060;49.186;9.226;2022-07-03T09:37:50;0.80;;;0.80;;
7253;SDS011;4060;49.186;9.226;2022-07-03T09:40:21;0.80;;;0.80;;
7253;SDS011;4060;49.186;9.226;2022-07-03T09:42:58;0.93;;;0.68;;
7253;SDS011;4060;49.186;9.226;2022-07-03T09:48:27;0.70;;;0.70;;
7253;SDS011;4060;49.186;9.226;2022-07-03T09:51:17;1.40;;;0.80;;
7253;SDS011;4060;49.186;9.226;2022-07-03T09:53:52;0.57;;;0.57;;
7253;SDS011;4060;49.186;9.226;2022-07-03T09:56:24;0.50;;;0.50;;
7253;SDS011;4060;49.186;9.226;2022-07-03T09:59:02;1.15;;;0.73;;
7253;SDS011;4060;49.186;9.226;2022-07-03T10:01:33;0.60;;;0.60;;
7253;SDS011;4060;49.186;9.226;2022-07-03T10:04:11;2.60;;;0.77;;
7253;SDS011;4060;49.186;9.226;2022-07-03T10:06:47;0.95;;;0.60;;
7253;SDS011;4060;49.186;9.226;2022-07-03T10:09:20;2.47;;;0.57;;
7253;SDS011;4060;49.186;9.226;2022-07-03T10:11:51;0.55;;;0.55;;
7253;SDS011;4060;49.186;9.226;2022-07-03T10:14:22;3.88;;;0.80;;
7253;SDS011;4060;49.186;9.226;2022-07-03T10:16:53;0.50;;;0.43;;
7253;SDS011;4060;49.186;9.226;2022-07-03T10:19:25;1.63;;;0.57;;
7253;SDS011;4060;49.186;9.226;2022-07-03T10:21:56;0.50;;;0.50;;
7253;SDS011;4060;49.186;9.226;2022-07-03T10:24:30;1.55;;;0.70;;
7253;SDS011;4060;49.186;9.226;2022-07-03T10:27:00;1.45;;;0.50;;
7253;SDS011;4060;49.186;9.226;2022-07-03T10:29:30;0.50;;;0.40;;
7253;SDS011;4060;49.186;9.226;2022-07-03T10:32:00;1.17;;;0.63;;
7253;SDS011;4060;49.186;9.226;2022-07-03T10:34:34;0.50;;;0.50;;
7253;SDS011;4060;49.186;9.226;2022-07-03T10:37:04;1.48;;;0.63;;
7253;SDS011;4060;49.186;9.226;2022-07-03T10:39:40;1.73;;;0.70;;
7253;SDS011;4060;49.186;9.226;2022-07-03T10:42:19;4.65;;;0.60;;
7253;SDS011;4060;49.186;9.226;2022-07-03T10:45:12;1.42;;;0.95;;
7253;SDS011;4060;49.186;9.226;2022-07-03T10:47:45;2.15;;;0.55;;
7253;SDS011;4060;49.186;9.226;2022-07-03T10:50:16;1.17;;;0.75;;
7253;SDS011;4060;49.186;9.226;2022-07-03T10:52:47;1.50;;;0.70;;
7253;SDS011;4060;49.186;9.226;2022-07-03T10:55:19;3.22;;;1.13;;
7253;SDS011;4060;49.186;9.226;2022-07-03T10:58:07;1.00;;;0.47;;
7253;SDS011;4060;49.186;9.226;2022-07-03T11:00:53;0.95;;;0.50;;
7253;SDS011;4060;49.186;9.226;2022-07-03T11:09:21;1.30;;;0.50;;
7253;SDS011;4060;49.186;9.226;2022-07-03T11:11:52;3.20;;;0.70;;
7253;SDS011;4060;49.186;9.226;2022-07-03T11:14:24;1.95;;;0.60;;
7253;SDS011;4060;49.186;9.226;2022-07-03T11:17:16;0.50;;;0.50;;
7253;SDS011;4060;49.186;9.226;2022-07-03T11:19:47;0.63;;;0.57;;
7253;SDS011;4060;49.186;9.226;2022-07-03T11:22:31;0.50;;;0.50;;
7253;SDS011;4060;49.186;9.226;2022-07-03T11:25:10;1.02;;;0.40;;
7253;SDS011;4060;49.186;9.226;2022-07-03T11:27:45;1.33;;;0.50;;
7253;SDS011;4060;49.186;9.226;2022-07-03T11:30:16;0.50;;;0.50;;
7253;SDS011;4060;49.186;9.226;2022-07-03T11:32:48;0.88;;;0.50;;
7253;SDS011;4060;49.186;9.226;2022-07-03T11:38:17;0.55;;;0.52;;
7253;SDS011;4060;49.186;9.226;2022-07-03T11:40:49;1.20;;;0.70;;
7253;SDS011;4060;49.186;9.226;2022-07-03T11:43:22;0.50;;;0.50;;
7253;SDS011;4060;49.186;9.226;2022-07-03T11:45:53;1.20;;;0.40;;
7253;SDS011;4060;49.186;9.226;2022-07-03T11:48:24;0.65;;;0.40;;
7253;SDS011;4060;49.186;9.226;2022-07-03T11:50:59;1.33;;;0.50;;
7253;SDS011;4060;49.186;9.226;2022-07-03T11:53:30;0.60;;;0.60;;
7253;SDS011;4060;49.186;9.226;2022-07-03T11:56:02;0.50;;;0.50;;
7253;SDS011;4060;49.186;9.226;2022-07-03T11:58:43;2.30;;;0.60;;
7253;SDS011;4060;49.186;9.226;2022-07-03T12:01:28;2.10;;;0.60;;
7253;SDS011;4060;49.186;9.226;2022-07-03T12:04:03;1.02;;;0.73;;
7253;SDS011;4060;49.186;9.226;2022-07-03T12:06:35;0.93;;;0.63;;
7253;SDS011;4060;49.186;9.226;2022-07-03T12:09:15;2.47;;;0.70;;
7253;SDS011;4060;49.186;9.226;2022-07-03T12:11:57;1.27;;;0.57;;
7253;SDS011;4060;49.186;9.226;2022-07-03T12:14:39;0.50;;;0.50;;
7253;SDS011;4060;49.186;9.226;2022-07-03T12:17:11;0.50;;;0.50;;
7253;SDS011;4060;49.186;9.226;2022-07-03T12:19:46;0.70;;;0.50;;
7253;SDS011;4060;49.186;9.226;2022-07-03T12:22:26;0.50;;;0.50;;
7253;SDS011;4060;49.186;9.226;2022-07-03T12:25:03;0.63;;;0.63;;
7253;SDS011;4060;49.186;9.226;2022-07-03T12:27:37;0.57;;;0.38;;
7253;SDS011;4060;49.186;9.226;2022-07-03T12:30:09;0.50;;;0.40;;
7253;SDS011;4060;49.186;9.226;2022-07-03T12:32:40;0.60;;;0.57;;
7253;SDS011;4060;49.186;9.226;2022-07-03T12:35:09;0.60;;;0.60;;
7253;SDS011;4060;49.186;9.226;2022-07-03T12:37:41;1.17;;;0.57;;
7253;SDS011;4060;49.186;9.226;2022-07-03T12:40:11;0.55;;;0.50;;
7253;SDS011;4060;49.186;9.226;2022-07-03T12:42:45;0.40;;;0.40;;
7253;SDS011;4060;49.186;9.226;2022-07-03T12:45:18;1.08;;;0.77;;
7253;SDS011;4060;49.186;9.226;2022-07-03T12:47:57;1.05;;;0.70;;
7253;SDS011;4060;49.186;9.226;2022-07-03T12:53:27;0.55;;;0.30;;
7253;SDS011;4060;49.186;9.226;2022-07-03T12:56:00;0.52;;;0.52;;
7253;SDS011;4060;49.186;9.226;2022-07-03T12:58:30;0.65;;;0.50;;
7253;SDS011;4060;49.186;9.226;2022-07-03T13:01:28;0.90;;;0.43;;
7253;SDS011;4060;49.186;9.226;2022-07-03T13:03:59;0.68;;;0.50;;
7253;SDS011;4060;49.186;9.226;2022-07-03T13:06:29;1.30;;;0.70;;
7253;SDS011;4060;49.186;9.226;2022-07-03T13:09:00;0.57;;;0.55;;
7253;SDS011;4060;49.186;9.226;2022-07-03T13:11:31;0.80;;;0.60;;
7253;SDS011;4060;49.186;9.226;2022-07-03T13:14:05;0.60;;;0.60;;
7253;SDS011;4060;49.186;9.226;2022-07-03T13:16:45;0.40;;;0.40;;
7253;SDS011;4060;49.186;9.226;2022-07-03T13:19:16;0.60;;;0.47;;
7253;SDS011;4060;49.186;9.226;2022-07-03T13:21:46;1.30;;;0.52;;
7253;SDS011;4060;49.186;9.226;2022-07-03T13:24:17;0.55;;;0.55;;
7253;SDS011;4060;49.186;9.226;2022-07-03T13:26:47;0.40;;;0.40;;
7253;SDS011;4060;49.186;9.226;2022-07-03T13:29:17;1.95;;;0.52;;
7253;SDS011;4060;49.186;9.226;2022-07-03T13:31:48;1.33;;;0.50;;
7253;SDS011;4060;49.186;9.226;2022-07-03T13:34:17;3.08;;;0.70;;
7253;SDS011;4060;49.186;9.226;2022-07-03T13:36:47;1.02;;;0.50;;
7253;SDS011;4060;49.186;9.226;2022-07-03T13:39:17;2.08;;;0.65;;
7253;SDS011;4060;49.186;9.226;2022-07-03T13:41:47;0.40;;;0.40;;
7253;SDS011;4060;49.186;9.226;2022-07-03T13:44:16;0.40;;;0.40;;
7253;SDS011;4060;49.186;9.226;2022-07-03T13:46:45;0.73;;;0.50;;
7253;SDS011;4060;49.186;9.226;2022-07-03T13:49:17;1.00;;;0.70;;
7253;SDS011;4060;49.186;9.226;2022-07-03T13:51:47;0.60;;;0.50;;
7253;SDS011;4060;49.186;9.226;2022-07-03T13:54:16;1.70;;;0.60;;
7253;SDS011;4060;49.186;9.226;2022-07-03T13:56:46;2.30;;;0.60;;
7253;SDS011;4060;49.186;9.226;2022-07-03T13:59:16;0.73;;;0.55;;
7253;SDS011;4060;49.186;9.226;2022-07-03T14:01:46;0.43;;;0.40;;
7253;SDS011;4060;49.186;9.226;2022-07-03T14:04:17;1.10;;;0.60;;
7253;SDS011;4060;49.186;9.226;2022-07-03T14:06:47;0.70;;;0.40;;
7253;SDS011;4060;49.186;9.226;2022-07-03T14:09:16;0.63;;;0.40;;
7253;SDS011;4060;49.186;9.226;2022-07-03T14:11:46;0.40;;;0.40;;
7253;SDS011;4060;49.186;9.226;2022-07-03T14:14:16;0.50;;;0.50;;
7253;SDS011;4060;49.186;9.226;2022-07-03T14:16:46;1.23;;;0.40;;
7253;SDS011;4060;49.186;9.226;2022-07-03T14:19:17;0.77;;;0.50;;
7253;SDS011;4060;49.186;9.226;2022-07-03T14:21:47;0.50;;;0.50;;
7253;SDS011;4060;49.186;9.226;2022-07-03T14:24:17;0.65;;;0.45;;
7253;SDS011;4060;49.186;9.226;2022-07-03T14:26:46;0.60;;;0.50;;
7253;SDS011;4060;49.186;9.226;2022-07-03T14:29:32;0.43;;;0.40;;
7253;SDS011;4060;49.186;9.226;2022-07-03T14:32:20;0.70;;;0.50;;
7253;SDS011;4060;49.186;9.226;2022-07-03T14:35:00;0.70;;;0.47;;
7253;SDS011;4060;49.186;9.226;2022-07-03T14:37:31;0.40;;;0.30;;
7253;SDS011;4060;49.186;9.226;2022-07-03T14:40:00;0.63;;;0.50;;
7253;SDS011;4060;49.186;9.226;2022-07-03T14:42:31;1.23;;;0.40;;
7253;SDS011;4060;49.186;9.226;2022-07-03T14:45:01;1.52;;;0.52;;
7253;SDS011;4060;49.186;9.226;2022-07-03T14:47:32;0.88;;;0.50;;
7253;SDS011;4060;49.186;9.226;2022-07-03T14:50:02;0.65;;;0.50;;
7253;SDS011;4060;49.186;9.226;2022-07-03T14:52:33;0.63;;;0.60;;
7253;SDS011;4060;49.186;9.226;2022-07-03T14:55:04;0.50;;;0.30;;
7253;SDS011;4060;49.186;9.226;2022-07-03T14:57:36;0.95;;;0.57;;
7253;SDS011;4060;49.186;9.226;2022-07-03T15:00:11;0.38;;;0.38;;
7253;SDS011;4060;49.186;9.226;2022-07-03T15:02:48;0.50;;;0.40;;
7253;SDS011;4060;49.186;9.226;2022-07-03T15:05:22;0.40;;;0.40;;
7253;SDS011;4060;49.186;9.226;2022-07-03T15:07:59;0.50;;;0.50;;
7253;SDS011;4060;49.186;9.226;2022-07-03T15:10:37;1.30;;;0.60;;
7253;SDS011;4060;49.186;9.226;2022-07-03T15:13:07;0.47;;;0.43;;
7253;SDS011;4060;49.186;9.226;2022-07-03T15:15:37;0.30;;;0.30;;
7253;SDS011;4060;49.186;9.226;2022-07-03T15:18:09;0.45;;;0.35;;
7253;SDS011;4060;49.186;9.226;2022-07-03T15:20:40;0.50;;;0.40;;
7253;SDS011;4060;49.186;9.226;2022-07-03T15:23:12;0.40;;;0.40;;
7253;SDS011;4060;49.186;9.226;2022-07-03T15:25:45;0.95;;;0.40;;
7253;SDS011;4060;49.186;9.226;2022-07-03T15:28:15;0.40;;;0.40;;
7253;SDS011;4060;49.186;9.226;2022-07-03T15:30:48;0.40;;;0.40;;
7253;SDS011;4060;49.186;9.226;2022-07-03T15:33:21;0.50;;;0.50;;
7253;SDS011;4060;49.186;9.226;2022-07-03T15:35:57;0.55;;;0.50;;
7253;SDS011;4060;49.186;9.226;2022-07-03T15:38:33;0.60;;;0.43;;
7253;SDS011;4060;49.186;9.226;2022-07-03T15:41:09;0.50;;;0.50;;
7253;SDS011;4060;49.186;9.226;2022-07-03T15:43:52;0.50;;;0.50;;
7253;SDS011;4060;49.186;9.226;2022-07-03T15:46:35;0.45;;;0.30;;
7253;SDS011;4060;49.186;9.226;2022-07-03T15:52:05;0.68;;;0.52;;
7253;SDS011;4060;49.186;9.226;2022-07-03T15:54:46;1.85;;;0.70;;
7253;SDS011;4060;49.186;9.226;2022-07-03T15:57:32;0.32;;;0.32;;
7253;SDS011;4060;49.186;9.226;2022-07-03T16:00:08;0.75;;;0.60;;
7253;SDS011;4060;49.186;9.226;2022-07-03T16:02:44;1.33;;;0.45;;
7253;SDS011;4060;49.186;9.226;2022-07-03T16:05:26;1.17;;;0.50;;
7253;SDS011;4060;49.186;9.226;2022-07-03T16:08:01;1.10;;;0.70;;